Time;durP1;ratioP1;P1;durP2;ratioP2;P2;SDS_P1;SDS_P2;PMS_P1;PMS_P2;Temp;Humidity;BMP_temperature;BMP_pressure;BME280_temperature;BME280_humidity;BME280_pressure;Samples;Min_cycle;Max_cycle;Signal;HPM_P1;HPM_P2
2020/12/17 00:00:20;;;;;;;96.65;47.58;;;;;;;;;;5077057;28;20029;-72
2020/12/17 00:02:47;;;;;;;94.93;47.67;;;;;;;;;;5059142;28;20017;-72
2020/12/17 00:05:13;;;;;;;85.85;45.75;;;;;;;;;;5059076;28;20033;-72
2020/12/17 00:07:39;;;;;;;83.50;43.97;;;;;;;;;;5076707;28;20098;-72
2020/12/17 00:10:08;;;;;;;88.28;44.63;;;;;;;;;;5076841;28;20028;-72
2020/12/17 00:12:35;;;;;;;81.78;43.65;;;;;;;;;;5076749;28;20029;-71
2020/12/17 00:15:01;;;;;;;85.63;44.42;;;;;;;;;;5076547;28;20127;-72
2020/12/17 00:17:26;;;;;;;76.50;42.50;;;;;;;;;;5076659;28;20051;-72
2020/12/17 00:19:53;;;;;;;74.40;40.97;;;;;;;;;;5057689;28;20036;-72
2020/12/17 00:22:18;;;;;;;82.93;42.63;;;;;;;;;;5058751;28;20013;-71
2020/12/17 00:24:44;;;;;;;93.65;47.42;;;;;;;;;;5076565;28;20475;-72
2020/12/17 00:27:09;;;;;;;89.75;45.47;;;;;;;;;;5076515;28;20058;-72
2020/12/17 00:29:35;;;;;;;91.18;45.08;;;;;;;;;;5058581;28;20052;-72
2020/12/17 00:32:00;;;;;;;94.25;46.10;;;;;;;;;;5058541;28;20430;-72
2020/12/17 00:34:26;;;;;;;109.90;52.03;;;;;;;;;;5076215;28;20036;-72
2020/12/17 00:36:52;;;;;;;114.93;52.58;;;;;;;;;;5076262;28;20097;-72
2020/12/17 00:39:17;;;;;;;87.15;43.70;;;;;;;;;;5058529;28;20035;-72
2020/12/17 00:41:43;;;;;;;81.63;43.63;;;;;;;;;;5076261;28;20034;-72
2020/12/17 00:44:08;;;;;;;84.10;42.33;;;;;;;;;;5076141;28;20029;-72
2020/12/17 00:46:34;;;;;;;87.22;44.47;;;;;;;;;;5058453;28;20016;-72
2020/12/17 00:48:59;;;;;;;91.70;44.30;;;;;;;;;;5076101;28;20039;-72
2020/12/17 00:51:25;;;;;;;90.15;43.00;;;;;;;;;;5058169;28;20044;-72
2020/12/17 00:53:50;;;;;;;85.68;43.78;;;;;;;;;;5075922;28;20033;-72
2020/12/17 00:56:16;;;;;;;84.82;43.83;;;;;;;;;;5057823;28;20008;-72
2020/12/17 00:58:41;;;;;;;88.88;45.35;;;;;;;;;;5075585;28;20025;-71
2020/12/17 01:01:07;;;;;;;84.63;45.50;;;;;;;;;;5075779;28;20055;-72
2020/12/17 01:03:34;;;;;;;79.28;43.03;;;;;;;;;;5075849;28;20021;-72
2020/12/17 01:05:59;;;;;;;85.90;43.30;;;;;;;;;;5057546;28;20017;-72
2020/12/17 01:08:25;;;;;;;80.03;43.22;;;;;;;;;;5075796;28;20042;-72
2020/12/17 01:10:51;;;;;;;79.55;43.08;;;;;;;;;;5075754;28;20043;-72
2020/12/17 01:13:16;;;;;;;74.40;40.03;;;;;;;;;;5058015;28;20066;-71
2020/12/17 01:15:41;;;;;;;76.85;41.05;;;;;;;;;;5057613;28;20027;-72
2020/12/17 01:18:07;;;;;;;72.63;40.80;;;;;;;;;;5075584;28;20111;-72
2020/12/17 01:20:33;;;;;;;76.50;40.95;;;;;;;;;;5057734;28;20013;-72
2020/12/17 01:22:58;;;;;;;79.45;43.03;;;;;;;;;;5057635;28;20036;-72
2020/12/17 01:25:23;;;;;;;80.45;43.20;;;;;;;;;;5075957;28;20020;-72
2020/12/17 01:27:49;;;;;;;80.43;42.50;;;;;;;;;;5057323;28;20034;-72
2020/12/17 01:30:14;;;;;;;82.45;44.10;;;;;;;;;;5075455;28;20066;-72
2020/12/17 01:32:40;;;;;;;75.80;40.40;;;;;;;;;;5075402;28;20109;-72
2020/12/17 01:35:06;;;;;;;80.00;43.00;;;;;;;;;;5074696;28;20439;-72
2020/12/17 01:37:32;;;;;;;77.75;41.78;;;;;;;;;;5075359;28;20024;-71
2020/12/17 01:39:58;;;;;;;86.60;44.53;;;;;;;;;;5075150;28;20049;-72
2020/12/17 01:42:23;;;;;;;81.65;43.42;;;;;;;;;;5075022;28;20024;-71
2020/12/17 01:44:49;;;;;;;76.57;41.47;;;;;;;;;;5075291;28;20378;-72
2020/12/17 01:47:15;;;;;;;77.15;42.20;;;;;;;;;;5056984;28;20043;-72
2020/12/17 01:49:42;;;;;;;80.30;43.72;;;;;;;;;;5075080;28;20054;-71
2020/12/17 01:52:08;;;;;;;78.20;42.22;;;;;;;;;;5075062;28;20110;-72
2020/12/17 01:54:33;;;;;;;77.93;42.35;;;;;;;;;;5057141;28;20483;-72
2020/12/17 01:57:00;;;;;;;78.68;42.25;;;;;;;;;;5056962;28;20039;-72
2020/12/17 01:59:27;;;;;;;81.93;43.45;;;;;;;;;;5074696;28;20043;-71
2020/12/17 02:01:53;;;;;;;79.88;42.35;;;;;;;;;;5074319;28;20024;-71
2020/12/17 02:04:19;;;;;;;77.78;43.97;;;;;;;;;;5074762;28;20101;-72
2020/12/17 02:06:45;;;;;;;72.93;41.78;;;;;;;;;;5073972;28;20075;-72
2020/12/17 02:09:11;;;;;;;82.93;42.90;;;;;;;;;;5073806;28;20020;-72
2020/12/17 02:11:37;;;;;;;78.38;42.95;;;;;;;;;;5056696;28;20531;-72
2020/12/17 02:14:02;;;;;;;74.70;41.83;;;;;;;;;;5056451;28;20024;-71
2020/12/17 02:16:28;;;;;;;80.70;41.95;;;;;;;;;;5074175;28;20396;-71
2020/12/17 02:18:53;;;;;;;81.32;42.15;;;;;;;;;;5056545;28;20023;-71
2020/12/17 02:21:20;;;;;;;77.20;41.50;;;;;;;;;;5074601;28;20082;-71
2020/12/17 02:23:45;;;;;;;76.57;41.85;;;;;;;;;;5074189;28;20024;-71
2020/12/17 02:26:11;;;;;;;80.45;42.65;;;;;;;;;;5056472;28;20077;-72
2020/12/17 02:28:36;;;;;;;82.15;43.30;;;;;;;;;;5056392;28;20020;-72
2020/12/17 02:31:02;;;;;;;79.10;42.88;;;;;;;;;;5039769;28;20054;-72
2020/12/17 02:33:28;;;;;;;78.15;43.72;;;;;;;;;;5074262;28;20062;-72
2020/12/17 02:35:54;;;;;;;78.78;44.10;;;;;;;;;;5056073;28;20028;-72
2020/12/17 02:38:22;;;;;;;85.57;42.80;;;;;;;;;;5073935;28;20485;-71
2020/12/17 02:40:48;;;;;;;81.43;44.60;;;;;;;;;;5056045;28;20064;-72
2020/12/17 02:43:14;;;;;;;79.47;43.95;;;;;;;;;;5073984;28;20098;-72
2020/12/17 02:45:46;;;;;;;80.75;44.47;;;;;;;;;;5073869;28;20470;-72
2020/12/17 02:48:12;;;;;;;82.85;44.95;;;;;;;;;;5073812;28;20039;-72
2020/12/17 02:50:39;;;;;;;81.95;42.88;;;;;;;;;;5056007;28;20024;-71
2020/12/17 02:53:05;;;;;;;87.05;46.17;;;;;;;;;;5039291;28;20025;-72
2020/12/17 02:55:31;;;;;;;86.70;44.25;;;;;;;;;;5073612;28;20050;-72
2020/12/17 02:57:57;;;;;;;82.75;43.72;;;;;;;;;;5055932;28;20055;-72
2020/12/17 03:00:23;;;;;;;80.13;42.63;;;;;;;;;;5073101;28;20032;-72
2020/12/17 03:02:48;;;;;;;81.63;42.38;;;;;;;;;;5073578;28;20414;-71
2020/12/17 03:05:14;;;;;;;81.25;43.38;;;;;;;;;;5039146;28;20116;-71
2020/12/17 03:07:39;;;;;;;92.60;46.38;;;;;;;;;;5038806;28;20146;-72
2020/12/17 03:10:05;;;;;;;86.40;45.30;;;;;;;;;;5073635;28;20031;-72
2020/12/17 03:12:31;;;;;;;92.50;45.95;;;;;;;;;;5055543;28;20034;-72
2020/12/17 03:14:56;;;;;;;89.88;45.25;;;;;;;;;;5073286;28;20107;-71
2020/12/17 03:17:22;;;;;;;83.72;43.90;;;;;;;;;;5055324;28;20020;-71
2020/12/17 03:19:47;;;;;;;84.10;43.85;;;;;;;;;;5038814;28;20112;-73
2020/12/17 03:22:13;;;;;;;78.75;42.53;;;;;;;;;;5055415;28;20028;-72
2020/12/17 03:24:38;;;;;;;77.75;42.88;;;;;;;;;;5055467;28;20443;-72
2020/12/17 03:27:04;;;;;;;83.00;43.50;;;;;;;;;;5055519;28;20054;-72
2020/12/17 03:29:29;;;;;;;86.10;43.10;;;;;;;;;;5073168;28;20055;-72
2020/12/17 03:31:55;;;;;;;84.38;42.78;;;;;;;;;;5073200;28;20479;-72
2020/12/17 03:34:21;;;;;;;79.85;42.78;;;;;;;;;;5055072;28;20158;-72
2020/12/17 03:36:46;;;;;;;97.97;51.88;;;;;;;;;;5055484;28;20060;-72
2020/12/17 03:39:12;;;;;;;98.70;50.10;;;;;;;;;;5055395;28;20031;-72
2020/12/17 03:41:37;;;;;;;98.13;51.42;;;;;;;;;;5073122;28;20036;-72
2020/12/17 03:44:03;;;;;;;94.07;48.30;;;;;;;;;;5073258;28;20016;-72
2020/12/17 03:46:28;;;;;;;89.53;47.25;;;;;;;;;;5055370;28;20394;-72
2020/12/17 03:48:54;;;;;;;93.85;47.28;;;;;;;;;;5055246;28;20013;-72
2020/12/17 03:51:19;;;;;;;93.00;46.25;;;;;;;;;;5073234;28;20042;-72
2020/12/17 03:53:45;;;;;;;87.00;44.90;;;;;;;;;;5073238;28;20021;-72
2020/12/17 03:56:10;;;;;;;86.50;43.85;;;;;;;;;;5072473;28;20067;-72
2020/12/17 03:58:36;;;;;;;91.80;46.25;;;;;;;;;;5055281;28;20025;-71
2020/12/17 04:01:01;;;;;;;89.97;44.85;;;;;;;;;;5073093;28;20024;-71
2020/12/17 04:03:27;;;;;;;95.53;46.08;;;;;;;;;;5073107;28;20109;-72
2020/12/17 04:05:52;;;;;;;94.28;45.83;;;;;;;;;;5070953;28;20068;-73
2020/12/17 04:08:18;;;;;;;97.53;45.03;;;;;;;;;;5072108;28;20045;-72
2020/12/17 04:10:43;;;;;;;93.03;45.65;;;;;;;;;;5038285;28;20170;-72
2020/12/17 04:13:09;;;;;;;98.55;46.20;;;;;;;;;;5054877;28;20042;-72
2020/12/17 04:15:34;;;;;;;95.25;46.50;;;;;;;;;;5072785;28;20041;-72
2020/12/17 04:18:00;;;;;;;94.18;45.17;;;;;;;;;;5072816;28;20013;-70
2020/12/17 04:20:25;;;;;;;88.60;44.22;;;;;;;;;;5054918;28;20086;-70
2020/12/17 04:22:51;;;;;;;96.75;46.13;;;;;;;;;;5072739;28;20021;-72
2020/12/17 04:25:16;;;;;;;93.07;45.55;;;;;;;;;;5054790;28;20033;-71
2020/12/17 04:27:42;;;;;;;93.18;45.50;;;;;;;;;;5072754;28;20462;-71
2020/12/17 04:30:07;;;;;;;90.93;45.63;;;;;;;;;;5072703;28;20028;-72
2020/12/17 04:32:33;;;;;;;99.03;47.50;;;;;;;;;;5056376;28;20033;-72
2020/12/17 04:34:58;;;;;;;88.95;45.20;;;;;;;;;;5058388;28;20075;-72
2020/12/17 04:37:24;;;;;;;93.68;44.60;;;;;;;;;;5076407;28;20542;-72
2020/12/17 04:39:49;;;;;;;91.47;45.45;;;;;;;;;;5076251;28;20028;-72
2020/12/17 04:42:15;;;;;;;93.70;45.25;;;;;;;;;;5076544;28;20470;-72
2020/12/17 04:44:42;;;;;;;97.65;45.30;;;;;;;;;;5076162;28;20072;-72
2020/12/17 04:47:09;;;;;;;91.93;44.72;;;;;;;;;;5058324;28;20037;-72
2020/12/17 04:49:41;;;;;;;89.75;45.13;;;;;;;;;;5058133;28;20086;-72
2020/12/17 04:52:07;;;;;;;92.45;44.75;;;;;;;;;;5057740;28;20059;-73
2020/12/17 04:54:33;;;;;;;89.22;44.45;;;;;;;;;;5075902;28;20467;-73
2020/12/17 04:57:12;;;;;;;86.70;44.10;;;;;;;;;;5076173;28;20025;-72
2020/12/17 04:59:43;;;;;;;84.30;43.97;;;;;;;;;;5075807;28;20029;-72
2020/12/17 05:02:09;;;;;;;90.03;43.47;;;;;;;;;;5075864;28;20027;-71
2020/12/17 05:04:39;;;;;;;80.53;41.33;;;;;;;;;;5075782;28;20091;-72
2020/12/17 05:07:15;;;;;;;85.60;41.77;;;;;;;;;;5075163;28;20029;-71
2020/12/17 05:09:44;;;;;;;79.55;41.05;;;;;;;;;;5075638;28;20033;-71
2020/12/17 05:12:12;;;;;;;89.07;42.83;;;;;;;;;;5075755;28;20098;-71
2020/12/17 05:14:39;;;;;;;83.78;42.83;;;;;;;;;;5072125;28;20402;-72
2020/12/17 05:17:04;;;;;;;82.45;43.10;;;;;;;;;;5075572;28;20027;-72
2020/12/17 05:19:30;;;;;;;85.53;43.60;;;;;;;;;;5074080;28;20032;-72
2020/12/17 05:21:56;;;;;;;80.00;41.38;;;;;;;;;;5075534;28;20095;-72
2020/12/17 05:24:25;;;;;;;84.00;41.35;;;;;;;;;;5075222;28;20035;-71
2020/12/17 05:26:54;;;;;;;87.05;42.83;;;;;;;;;;5085103;28;20012;-71
2020/12/17 05:29:19;;;;;;;87.45;43.60;;;;;;;;;;5095532;28;20021;-72
2020/12/17 05:31:45;;;;;;;92.63;45.80;;;;;;;;;;5077678;28;20099;-72
2020/12/17 05:34:11;;;;;;;90.80;45.10;;;;;;;;;;5077357;28;20135;-71
2020/12/17 05:36:37;;;;;;;84.43;43.17;;;;;;;;;;5077244;28;20451;-71
2020/12/17 05:39:06;;;;;;;88.90;44.50;;;;;;;;;;5077309;28;20118;-71
2020/12/17 05:41:32;;;;;;;90.30;44.55;;;;;;;;;;5077093;28;20558;-73
2020/12/17 05:44:07;;;;;;;91.30;43.92;;;;;;;;;;5094094;28;20123;-72
2020/12/17 05:46:36;;;;;;;81.43;40.30;;;;;;;;;;5095193;28;20070;-72
2020/12/17 05:49:12;;;;;;;89.38;42.72;;;;;;;;;;5095244;28;20024;-72
2020/12/17 05:51:38;;;;;;;86.22;41.08;;;;;;;;;;5095263;28;20042;-72
2020/12/17 05:54:05;;;;;;;86.47;41.28;;;;;;;;;;5095222;28;20111;-73
2020/12/17 05:56:34;;;;;;;83.95;42.05;;;;;;;;;;5095115;28;20032;-72
2020/12/17 05:59:04;;;;;;;80.88;40.17;;;;;;;;;;5076815;28;20043;-72
2020/12/17 06:01:30;;;;;;;80.25;40.45;;;;;;;;;;5076871;28;20032;-72
2020/12/17 06:03:55;;;;;;;84.35;41.70;;;;;;;;;;5094887;28;20061;-72
2020/12/17 06:06:21;;;;;;;87.40;43.38;;;;;;;;;;5094653;28;20040;-72
2020/12/17 06:08:51;;;;;;;94.05;45.95;;;;;;;;;;5076994;28;20039;-72
2020/12/17 06:11:20;;;;;;;100.35;46.60;;;;;;;;;;5094926;28;20032;-72
2020/12/17 06:13:51;;;;;;;114.32;50.40;;;;;;;;;;5076683;28;20024;-72
2020/12/17 06:16:17;;;;;;;128.32;54.45;;;;;;;;;;5094574;28;20158;-71
2020/12/17 06:18:42;;;;;;;183.52;63.28;;;;;;;;;;5094642;28;20044;-72
2020/12/17 06:21:08;;;;;;;158.95;56.50;;;;;;;;;;5094591;28;20032;-71
2020/12/17 06:23:34;;;;;;;173.15;59.63;;;;;;;;;;5076396;28;20017;-71
2020/12/17 06:26:00;;;;;;;154.02;55.20;;;;;;;;;;5076293;28;20114;-72
2020/12/17 06:28:46;;;;;;;117.95;48.88;;;;;;;;;;5094413;28;20020;-71
2020/12/17 06:31:19;;;;;;;114.30;46.90;;;;;;;;;;5094574;28;20114;-72
2020/12/17 06:33:46;;;;;;;104.47;42.58;;;;;;;;;;5094532;28;20039;-72
2020/12/17 06:36:31;;;;;;;111.75;43.92;;;;;;;;;;5094298;28;20028;-72
2020/12/17 06:39:03;;;;;;;111.85;46.25;;;;;;;;;;5076859;28;20398;-73
2020/12/17 06:41:29;;;;;;;102.28;40.22;;;;;;;;;;5075856;28;20028;-72
2020/12/17 06:43:55;;;;;;;72.95;33.50;;;;;;;;;;5094431;28;20110;-73
2020/12/17 06:46:38;;;;;;;60.13;29.88;;;;;;;;;;5076072;28;20060;-73
2020/12/17 06:49:07;;;;;;;71.53;31.90;;;;;;;;;;5076351;28;20486;-73
2020/12/17 06:51:36;;;;;;;69.57;35.95;;;;;;;;;;5075993;28;20016;-73
2020/12/17 06:54:17;;;;;;;70.28;36.35;;;;;;;;;;5093970;28;20024;-72
2020/12/17 06:57:01;;;;;;;63.50;29.67;;;;;;;;;;5093735;28;20070;-73
2020/12/17 06:59:26;;;;;;;48.38;24.17;;;;;;;;;;5075881;28;20028;-70
2020/12/17 07:01:52;;;;;;;56.25;26.73;;;;;;;;;;5094090;28;20026;-71
2020/12/17 07:04:33;;;;;;;53.67;27.17;;;;;;;;;;5076216;28;20032;-71
2020/12/17 07:07:08;;;;;;;45.22;22.52;;;;;;;;;;5093603;28;20044;-71
2020/12/17 07:09:33;;;;;;;38.95;20.00;;;;;;;;;;5094020;28;20505;-71
2020/12/17 07:12:00;;;;;;;36.92;19.73;;;;;;;;;;5093809;28;20008;-70
2020/12/17 07:14:25;;;;;;;35.80;20.50;;;;;;;;;;5093644;28;20023;-71
2020/12/17 07:16:55;;;;;;;40.78;23.20;;;;;;;;;;5093731;28;20024;-70
2020/12/17 07:19:28;;;;;;;53.15;28.48;;;;;;;;;;5093579;28;20028;-70
2020/12/17 07:22:05;;;;;;;64.30;29.10;;;;;;;;;;5093995;28;20032;-70
2020/12/17 07:24:32;;;;;;;56.28;27.88;;;;;;;;;;5094017;28;20048;-70
2020/12/17 07:26:59;;;;;;;65.28;29.50;;;;;;;;;;5093547;28;20103;-70
2020/12/17 07:29:38;;;;;;;56.65;27.10;;;;;;;;;;5093565;28;20428;-71
2020/12/17 07:32:22;;;;;;;56.10;28.83;;;;;;;;;;5075435;28;20028;-71
2020/12/17 07:34:48;;;;;;;54.50;25.98;;;;;;;;;;5092976;28;20089;-71
2020/12/17 07:37:32;;;;;;;52.92;27.38;;;;;;;;;;5093491;28;20021;-71
2020/12/17 07:39:58;;;;;;;42.00;25.67;;;;;;;;;;5093395;28;20525;-70
2020/12/17 07:42:24;;;;;;;41.42;23.10;;;;;;;;;;5093474;28;20048;-70
2020/12/17 07:44:49;;;;;;;37.00;21.30;;;;;;;;;;5093421;28;20031;-70
2020/12/17 07:47:21;;;;;;;46.15;23.58;;;;;;;;;;5093334;28;20034;-70
2020/12/17 07:49:47;;;;;;;45.90;25.58;;;;;;;;;;5075290;28;20032;-70
2020/12/17 07:52:28;;;;;;;43.75;25.05;;;;;;;;;;5074329;28;20470;-70
2020/12/17 07:54:53;;;;;;;46.17;25.85;;;;;;;;;;5092116;28;20043;-71
2020/12/17 07:57:19;;;;;;;43.55;24.50;;;;;;;;;;5075129;28;20457;-70
2020/12/17 07:59:44;;;;;;;48.85;26.35;;;;;;;;;;5075145;28;20027;-70
2020/12/17 08:05:46;;;;;;;46.85;23.95;;;;;;;;;;5093894;28;20081;-70
2020/12/17 08:15:07;;;;;;;35.67;21.30;;;;;;;;;;5097711;28;20059;-70
2020/12/17 08:21:09;;;;;;;34.17;17.02;;;;;;;;;;5097680;28;20118;-70
2020/12/17 08:27:09;;;;;;;22.30;13.63;;;;;;;;;;5097582;28;20043;-70
2020/12/17 08:33:09;;;;;;;33.38;20.83;;;;;;;;;;5097442;28;20058;-72
2020/12/17 08:39:11;;;;;;;34.30;20.15;;;;;;;;;;5097333;28;20030;-71
2020/12/17 08:45:12;;;;;;;36.38;21.75;;;;;;;;;;5097219;28;20058;-72
2020/12/17 08:51:15;;;;;;;32.83;20.98;;;;;;;;;;5097115;28;20090;-71
2020/12/17 08:57:16;;;;;;;37.30;21.42;;;;;;;;;;5096762;28;20058;-72
2020/12/17 09:07:02;;;;;;;38.70;22.67;;;;;;;;;;5096806;28;20069;-71
2020/12/17 09:16:50;;;;;;;31.10;19.27;;;;;;;;;;5076065;28;20188;-71
2020/12/17 09:22:50;;;;;;;38.72;22.30;;;;;;;;;;5076184;28;20019;-71
2020/12/17 09:25:26;;;;;;;37.03;22.20;;;;;;;;;;5058168;28;20431;-71
2020/12/17 09:27:52;;;;;;;27.48;15.93;;;;;;;;;;5057669;28;20029;-71
2020/12/17 09:30:18;;;;;;;31.88;18.85;;;;;;;;;;5075448;28;20032;-53
2020/12/17 09:32:53;;;;;;;35.38;20.65;;;;;;;;;;5057358;28;20456;-72
2020/12/17 09:35:20;;;;;;;38.03;21.98;;;;;;;;;;5057418;28;20036;-72
2020/12/17 09:37:57;;;;;;;35.10;21.00;;;;;;;;;;5052343;28;20025;-71
2020/12/17 09:40:23;;;;;;;31.40;19.15;;;;;;;;;;5063618;28;20090;-70
2020/12/17 09:43:00;;;;;;;31.35;20.02;;;;;;;;;;5070217;28;20024;-69
2020/12/17 09:45:26;;;;;;;31.75;19.42;;;;;;;;;;5039224;28;20028;-69
2020/12/17 09:47:51;;;;;;;32.05;19.33;;;;;;;;;;5069218;28;20059;-70
2020/12/17 09:50:18;;;;;;;30.55;18.63;;;;;;;;;;5073039;28;20462;-69
2020/12/17 09:52:43;;;;;;;30.90;18.85;;;;;;;;;;5056776;28;20025;-70
2020/12/17 09:55:10;;;;;;;34.80;20.02;;;;;;;;;;5057794;28;20033;-70
2020/12/17 09:57:47;;;;;;;34.95;20.80;;;;;;;;;;5062382;28;20032;-70
2020/12/17 10:00:13;;;;;;;29.60;19.10;;;;;;;;;;5071258;28;20028;-70
2020/12/17 10:02:39;;;;;;;29.88;18.60;;;;;;;;;;5061731;28;20104;-70
2020/12/17 10:05:06;;;;;;;28.73;18.60;;;;;;;;;;5078566;28;20031;-71
2020/12/17 10:07:32;;;;;;;32.17;20.02;;;;;;;;;;5060387;28;20025;-71
2020/12/17 10:09:58;;;;;;;32.70;20.73;;;;;;;;;;5056036;28;20487;-71
2020/12/17 10:12:24;;;;;;;36.13;20.67;;;;;;;;;;5089099;28;20120;-71
2020/12/17 10:14:51;;;;;;;31.92;20.92;;;;;;;;;;5074878;28;20128;-71
2020/12/17 10:17:17;;;;;;;28.52;17.52;;;;;;;;;;5074910;28;20040;-71
2020/12/17 10:19:43;;;;;;;36.78;20.10;;;;;;;;;;5071667;28;20798;-71
2020/12/17 10:22:08;;;;;;;25.88;14.60;;;;;;;;;;5042022;28;20035;-70
2020/12/17 10:24:36;;;;;;;28.90;17.88;;;;;;;;;;5054239;28;20132;-70
2020/12/17 10:27:02;;;;;;;40.83;24.20;;;;;;;;;;5055047;28;20074;-70
2020/12/17 10:29:28;;;;;;;37.38;23.00;;;;;;;;;;5069116;28;20064;-71
2020/12/17 10:31:56;;;;;;;26.30;16.65;;;;;;;;;;5054332;28;20096;-70
2020/12/17 10:34:23;;;;;;;25.73;15.85;;;;;;;;;;5054229;28;20025;-71
2020/12/17 10:36:50;;;;;;;24.88;15.38;;;;;;;;;;5054067;28;20029;-70
2020/12/17 10:39:16;;;;;;;22.92;15.10;;;;;;;;;;5055207;28;20113;-70
2020/12/17 10:41:42;;;;;;;25.80;15.90;;;;;;;;;;5054912;28;20048;-70
2020/12/17 10:44:08;;;;;;;27.13;17.63;;;;;;;;;;5054659;28;20039;-71
2020/12/17 10:46:41;;;;;;;24.25;15.77;;;;;;;;;;5053911;28;20108;-70
2020/12/17 10:49:15;;;;;;;27.73;17.48;;;;;;;;;;5054032;28;20072;-70
2020/12/17 10:51:42;;;;;;;29.90;17.15;;;;;;;;;;5053591;28;20120;-71
2020/12/17 10:54:08;;;;;;;32.80;19.45;;;;;;;;;;5054180;28;20032;-70
2020/12/17 10:56:33;;;;;;;27.63;17.65;;;;;;;;;;5053703;28;20086;-69
2020/12/17 10:59:00;;;;;;;23.80;14.85;;;;;;;;;;5067016;28;20016;-71
2020/12/17 11:01:26;;;;;;;26.63;15.60;;;;;;;;;;5090701;28;20123;-71
2020/12/17 11:03:53;;;;;;;31.00;18.30;;;;;;;;;;5075017;28;20031;-71
2020/12/17 11:06:21;;;;;;;24.65;16.52;;;;;;;;;;5079326;28;20069;-71
2020/12/17 11:08:48;;;;;;;26.67;16.80;;;;;;;;;;5073052;28;20017;-71
2020/12/17 11:11:15;;;;;;;32.30;19.85;;;;;;;;;;5074092;28;20036;-71
2020/12/17 11:13:41;;;;;;;36.97;21.52;;;;;;;;;;5055887;28;20044;-71
2020/12/17 11:16:06;;;;;;;32.75;18.88;;;;;;;;;;5055345;28;20115;-71
2020/12/17 11:18:32;;;;;;;35.13;20.73;;;;;;;;;;5073418;28;20028;-71
2020/12/17 11:21:00;;;;;;;59.05;30.67;;;;;;;;;;5073662;28;20108;-71
2020/12/17 11:23:33;;;;;;;31.15;18.35;;;;;;;;;;5053613;28;20175;-71
2020/12/17 11:26:09;;;;;;;55.58;29.40;;;;;;;;;;5070777;28;20123;-71
2020/12/17 11:28:35;;;;;;;44.13;26.05;;;;;;;;;;5065798;28;20086;-71
2020/12/17 11:31:00;;;;;;;32.05;20.40;;;;;;;;;;5066395;28;20028;-71
2020/12/17 11:33:26;;;;;;;29.38;19.08;;;;;;;;;;5055301;28;20055;-71
2020/12/17 11:35:52;;;;;;;29.50;18.75;;;;;;;;;;5056199;28;20024;-71
2020/12/17 11:38:18;;;;;;;39.70;25.95;;;;;;;;;;5053283;28;20207;-71
2020/12/17 11:40:43;;;;;;;43.05;27.23;;;;;;;;;;5068689;28;20115;-71
2020/12/17 11:43:09;;;;;;;51.95;32.30;;;;;;;;;;5053228;28;20035;-71
2020/12/17 11:45:34;;;;;;;133.65;71.10;;;;;;;;;;5053106;28;20064;-71
2020/12/17 11:48:00;;;;;;;69.45;38.83;;;;;;;;;;5053110;28;20033;-71
2020/12/17 11:50:26;;;;;;;34.95;21.25;;;;;;;;;;5053115;28;20025;-71
2020/12/17 11:52:52;;;;;;;30.77;19.35;;;;;;;;;;5053002;28;20139;-71
2020/12/17 11:55:18;;;;;;;25.90;16.80;;;;;;;;;;5052891;28;20486;-71
2020/12/17 11:57:46;;;;;;;27.38;17.20;;;;;;;;;;5053152;28;20033;-71
2020/12/17 12:00:12;;;;;;;26.77;17.20;;;;;;;;;;5053017;28;20059;-71
2020/12/17 12:02:37;;;;;;;40.05;25.45;;;;;;;;;;5053042;28;20067;-70
2020/12/17 12:05:04;;;;;;;32.90;21.70;;;;;;;;;;5056903;28;20035;-71
2020/12/17 12:07:29;;;;;;;43.20;27.85;;;;;;;;;;5048194;28;20029;-72
2020/12/17 12:09:54;;;;;;;35.13;21.55;;;;;;;;;;5072851;28;20150;-71
2020/12/17 12:12:20;;;;;;;33.78;21.35;;;;;;;;;;5054477;28;20086;-71
2020/12/17 12:14:46;;;;;;;29.73;19.13;;;;;;;;;;5072702;28;20041;-71
2020/12/17 12:17:12;;;;;;;24.20;16.60;;;;;;;;;;5072890;28;20083;-71
2020/12/17 12:19:38;;;;;;;26.17;17.27;;;;;;;;;;5055365;28;20064;-71
2020/12/17 12:22:03;;;;;;;25.58;16.83;;;;;;;;;;5073208;28;20063;-71
2020/12/17 12:24:29;;;;;;;33.03;20.20;;;;;;;;;;5054744;28;20025;-71
2020/12/17 12:26:54;;;;;;;52.60;29.75;;;;;;;;;;5072737;28;20021;-71
2020/12/17 12:29:20;;;;;;;31.65;20.85;;;;;;;;;;5072855;28;20086;-71
2020/12/17 12:31:49;;;;;;;37.75;24.73;;;;;;;;;;5055027;28;20023;-71
2020/12/17 12:34:14;;;;;;;33.80;22.85;;;;;;;;;;5055062;28;20105;-71
2020/12/17 12:36:40;;;;;;;30.58;20.05;;;;;;;;;;5072649;28;20021;-71
2020/12/17 12:39:08;;;;;;;23.60;16.35;;;;;;;;;;5072479;28;20037;-71
2020/12/17 12:41:35;;;;;;;21.73;15.23;;;;;;;;;;5072783;28;20024;-71
2020/12/17 12:44:01;;;;;;;21.95;15.63;;;;;;;;;;5063955;28;20040;-71
2020/12/17 12:46:26;;;;;;;22.13;15.00;;;;;;;;;;5043765;28;20028;-71
2020/12/17 12:48:52;;;;;;;24.60;15.48;;;;;;;;;;5059154;28;20036;-71
2020/12/17 12:51:19;;;;;;;23.30;15.70;;;;;;;;;;5048741;28;20025;-71
2020/12/17 12:53:44;;;;;;;33.03;19.98;;;;;;;;;;5071599;28;20033;-71
2020/12/17 12:56:10;;;;;;;41.33;26.92;;;;;;;;;;5055973;28;20021;-71
2020/12/17 12:58:35;;;;;;;30.85;19.55;;;;;;;;;;5056069;28;20029;-71
2020/12/17 13:01:01;;;;;;;23.63;16.48;;;;;;;;;;5056282;28;20374;-71
2020/12/17 13:03:26;;;;;;;27.88;17.10;;;;;;;;;;5056020;28;20059;-71
2020/12/17 13:05:52;;;;;;;56.55;26.55;;;;;;;;;;5056061;28;20013;-71
2020/12/17 13:08:19;;;;;;;47.85;26.23;;;;;;;;;;5055879;28;20059;-71
2020/12/17 13:10:44;;;;;;;44.72;26.30;;;;;;;;;;5055848;28;20032;-71
2020/12/17 13:13:10;;;;;;;41.55;26.30;;;;;;;;;;5070898;28;20044;-71
2020/12/17 13:15:36;;;;;;;31.50;22.02;;;;;;;;;;5037942;28;20033;-71
2020/12/17 13:18:02;;;;;;;31.25;20.95;;;;;;;;;;5055681;28;20021;-71
2020/12/17 13:20:27;;;;;;;30.35;19.42;;;;;;;;;;5055569;28;20411;-70
2020/12/17 13:22:53;;;;;;;26.10;18.15;;;;;;;;;;5055757;28;20049;-70
2020/12/17 13:25:21;;;;;;;26.00;18.60;;;;;;;;;;5073839;28;20020;-70
2020/12/17 13:27:46;;;;;;;28.98;20.92;;;;;;;;;;5061770;28;20029;-70
2020/12/17 13:30:12;;;;;;;33.72;22.77;;;;;;;;;;5075525;28;20382;-70
2020/12/17 13:32:40;;;;;;;82.55;37.63;;;;;;;;;;5075118;28;20081;-70
2020/12/17 13:35:05;;;;;;;54.70;26.88;;;;;;;;;;5070820;28;20021;-70
2020/12/17 13:37:31;;;;;;;70.70;33.05;;;;;;;;;;5055689;28;20021;-70
2020/12/17 13:39:56;;;;;;;120.97;48.67;;;;;;;;;;5061978;28;20025;-70
2020/12/17 13:42:22;;;;;;;79.90;35.55;;;;;;;;;;5064732;28;20500;-71
2020/12/17 13:44:48;;;;;;;36.50;20.98;;;;;;;;;;5062434;28;20533;-71
2020/12/17 13:47:13;;;;;;;31.10;18.80;;;;;;;;;;5065419;28;20032;-71
2020/12/17 13:49:39;;;;;;;31.95;20.23;;;;;;;;;;5055163;28;20017;-71
2020/12/17 13:52:05;;;;;;;32.15;20.60;;;;;;;;;;5055178;28;20039;-71
2020/12/17 13:54:31;;;;;;;34.75;21.08;;;;;;;;;;5037242;28;20017;-71
2020/12/17 13:56:56;;;;;;;41.10;21.52;;;;;;;;;;5055116;28;20091;-70
2020/12/17 13:59:22;;;;;;;30.88;19.17;;;;;;;;;;5037357;28;20052;-70
2020/12/17 14:01:47;;;;;;;29.48;18.42;;;;;;;;;;5054997;28;20033;-70
2020/12/17 14:04:13;;;;;;;32.65;19.58;;;;;;;;;;5036318;28;20020;-70
2020/12/17 14:06:38;;;;;;;33.75;19.92;;;;;;;;;;5057125;28;20121;-70
2020/12/17 14:09:04;;;;;;;36.13;20.90;;;;;;;;;;5047580;28;20075;-70
2020/12/17 14:11:30;;;;;;;94.28;49.35;;;;;;;;;;5065559;28;20486;-69
2020/12/17 14:13:56;;;;;;;127.47;72.05;;;;;;;;;;5054412;28;20083;-69
2020/12/17 14:16:22;;;;;;;74.38;41.33;;;;;;;;;;5054526;28;20045;-69
2020/12/17 14:18:49;;;;;;;105.00;56.85;;;;;;;;;;5070084;28;20463;-69
2020/12/17 14:21:21;;;;;;;116.78;66.45;;;;;;;;;;5054366;28;20390;-70
2020/12/17 14:23:47;;;;;;;88.07;55.25;;;;;;;;;;5054513;28;20428;-70
2020/12/17 14:26:17;;;;;;;68.35;40.15;;;;;;;;;;5054321;28;20154;-70
2020/12/17 14:28:44;;;;;;;55.10;35.28;;;;;;;;;;5035987;28;20069;-70
2020/12/17 14:31:10;;;;;;;58.50;35.50;;;;;;;;;;5060951;28;20020;-70
2020/12/17 14:33:36;;;;;;;65.65;38.72;;;;;;;;;;5058181;28;20039;-70
2020/12/17 14:36:02;;;;;;;75.90;44.53;;;;;;;;;;5073961;28;20382;-70
2020/12/17 14:38:28;;;;;;;78.78;47.00;;;;;;;;;;5074171;28;20050;-70
2020/12/17 14:40:53;;;;;;;94.45;57.25;;;;;;;;;;5074254;28;20526;-70
2020/12/17 14:43:19;;;;;;;76.03;43.92;;;;;;;;;;5047231;28;20086;-71
2020/12/17 14:45:48;;;;;;;61.67;34.55;;;;;;;;;;5065854;28;20044;-70
2020/12/17 14:48:14;;;;;;;70.85;42.75;;;;;;;;;;5058640;28;20456;-70
2020/12/17 14:50:39;;;;;;;68.25;39.10;;;;;;;;;;5053925;28;20070;-71
2020/12/17 14:53:05;;;;;;;71.60;40.90;;;;;;;;;;5053989;28;20108;-71
2020/12/17 14:55:32;;;;;;;96.35;55.65;;;;;;;;;;5045122;28;20471;-70
2020/12/17 14:57:58;;;;;;;208.80;107.28;;;;;;;;;;5071547;28;20024;-71
2020/12/17 15:00:24;;;;;;;220.48;114.60;;;;;;;;;;5053742;28;20025;-71
2020/12/17 15:02:49;;;;;;;121.25;69.47;;;;;;;;;;5053697;28;20037;-69
2020/12/17 15:05:15;;;;;;;87.93;49.33;;;;;;;;;;5053665;28;20023;-69
2020/12/17 15:07:41;;;;;;;182.05;89.75;;;;;;;;;;5035987;28;20021;-69